createdAt,value
2022-08-30T00:00:11.871Z,99.90
2022-08-30T00:04:13.483Z,99.90
2022-08-30T00:08:15.442Z,99.90
2022-08-30T00:12:17.546Z,99.90
2022-08-30T00:16:20.536Z,99.90
2022-08-30T00:20:24.834Z,99.90
2022-08-30T00:24:26.568Z,99.90
2022-08-30T00:28:28.681Z,99.90
2022-08-30T00:32:30.377Z,99.90
2022-08-30T00:36:31.972Z,99.90
2022-08-30T00:40:33.823Z,99.90
2022-08-30T00:44:35.671Z,99.90
2022-08-30T00:48:40.988Z,99.90
2022-08-30T00:52:44.495Z,99.90
2022-08-30T00:56:48.018Z,99.90
2022-08-30T01:00:50.714Z,99.90
2022-08-30T01:04:53.025Z,99.90
2022-08-30T01:08:54.737Z,99.90
2022-08-30T01:12:56.421Z,99.90
2022-08-30T01:16:58.070Z,99.90
2022-08-30T01:21:10.928Z,99.90
2022-08-30T01:25:13.623Z,99.90
2022-08-30T01:29:17.575Z,99.90
2022-08-30T01:33:22.155Z,99.90
2022-08-30T01:37:26.710Z,99.90
2022-08-30T01:41:30.136Z,99.90
2022-08-30T01:45:31.822Z,99.90
2022-08-30T01:49:33.537Z,99.90
2022-08-30T01:53:35.238Z,99.90
2022-08-30T01:57:36.966Z,99.90
2022-08-30T02:01:39.939Z,99.90
2022-08-30T02:05:41.870Z,99.90
2022-08-30T02:09:44.066Z,99.90
2022-08-30T02:13:47.883Z,99.90
2022-08-30T02:17:49.640Z,99.90
2022-08-30T02:21:51.477Z,99.90
2022-08-30T02:25:53.242Z,99.90
2022-08-30T02:29:54.892Z,99.90
2022-08-30T02:33:56.683Z,99.90
2022-08-30T02:37:58.407Z,99.90
2022-08-30T02:42:00.192Z,99.90
2022-08-30T02:46:01.865Z,99.90
2022-08-30T02:50:04.721Z,99.90
2022-08-30T02:54:06.682Z,99.90
2022-08-30T02:58:08.756Z,99.90
2022-08-30T03:02:11.668Z,99.90
2022-08-30T03:06:13.768Z,99.90
2022-08-30T03:10:16.227Z,99.90
2022-08-30T03:14:18.114Z,99.90
2022-08-30T03:18:20.900Z,99.90
2022-08-30T03:22:22.826Z,99.90
2022-08-30T03:26:24.397Z,99.90
2022-08-30T03:30:26.022Z,99.90
2022-08-30T03:34:27.738Z,99.90
2022-08-30T03:38:29.389Z,99.90
2022-08-30T03:42:31.024Z,99.90
2022-08-30T03:46:37.179Z,99.90
2022-08-30T03:50:40.536Z,99.90
2022-08-30T03:54:42.156Z,99.90
2022-08-30T03:58:44.067Z,99.90
2022-08-30T04:02:45.833Z,99.90
2022-08-30T04:06:47.525Z,99.90
2022-08-30T04:10:49.449Z,99.90
2022-08-30T04:14:51.133Z,99.90
2022-08-30T04:18:53.104Z,99.90
2022-08-30T04:22:54.748Z,99.90
2022-08-30T04:26:56.429Z,99.90
2022-08-30T04:30:58.127Z,99.90
2022-08-30T04:34:59.791Z,99.90
2022-08-30T04:39:01.409Z,99.90
2022-08-30T04:43:03.739Z,99.90
2022-08-30T04:47:05.432Z,99.90
2022-08-30T04:51:08.292Z,99.90
2022-08-30T04:55:10.685Z,99.90
2022-08-30T04:59:13.281Z,99.90
2022-08-30T05:03:18.266Z,99.90
2022-08-30T05:07:20.185Z,99.90
2022-08-30T05:11:22.542Z,99.90
2022-08-30T05:15:24.335Z,99.90
2022-08-30T05:19:26.230Z,99.90
2022-08-30T05:23:27.873Z,99.90
2022-08-30T05:27:29.543Z,99.90
2022-08-30T05:31:32.880Z,99.90
2022-08-30T05:35:34.697Z,99.90
2022-08-30T05:39:50.853Z,99.90
2022-08-30T05:43:54.425Z,99.90
2022-08-30T05:47:56.363Z,99.90
2022-08-30T05:51:58.027Z,99.90
2022-08-30T05:56:00.992Z,99.90
2022-08-30T06:00:07.808Z,99.90
2022-08-30T06:04:10.684Z,99.90
2022-08-30T06:08:12.565Z,99.90
2022-08-30T06:12:14.378Z,99.90
2022-08-30T06:16:17.422Z,99.90
2022-08-30T06:20:20.396Z,99.90
2022-08-30T06:24:35.670Z,99.90
2022-08-30T06:28:43.123Z,99.90
2022-08-30T06:32:47.730Z,99.90
2022-08-30T06:36:49.421Z,99.90
2022-08-30T06:40:51.279Z,99.90
2022-08-30T06:44:55.262Z,99.90
2022-08-30T06:48:57.501Z,99.90
2022-08-30T06:53:06.035Z,99.90
2022-08-30T06:57:07.957Z,99.90
2022-08-30T07:01:16.941Z,99.90
2022-08-30T07:05:22.153Z,99.90
2022-08-30T07:09:24.398Z,99.90
2022-08-30T07:13:28.471Z,99.90
2022-08-30T07:17:48.954Z,99.90
2022-08-30T07:21:50.832Z,99.90
2022-08-30T07:25:52.871Z,99.90
2022-08-30T07:29:54.781Z,99.90
2022-08-30T07:33:56.807Z,99.90
2022-08-30T07:37:58.985Z,99.90
2022-08-30T07:42:00.812Z,99.90
2022-08-30T07:46:03.812Z,99.90
2022-08-30T07:50:06.845Z,99.90
2022-08-30T07:54:08.675Z,99.90
2022-08-30T07:58:10.319Z,99.90
2022-08-30T08:02:12.003Z,99.90
2022-08-30T08:06:15.044Z,99.90
2022-08-30T08:10:18.763Z,99.90
2022-08-30T08:14:21.766Z,99.90
2022-08-30T08:18:23.389Z,99.90
2022-08-30T08:22:25.000Z,99.90
2022-08-30T08:26:27.070Z,99.90
2022-08-30T08:30:28.759Z,99.90
2022-08-30T08:34:30.917Z,99.90
2022-08-30T08:38:32.569Z,99.90
2022-08-30T08:42:48.757Z,99.90
2022-08-30T08:46:50.479Z,99.90
2022-08-30T08:51:10.912Z,99.90
2022-08-30T08:55:14.158Z,99.90
2022-08-30T08:59:16.210Z,99.90
2022-08-30T09:03:19.810Z,99.90
2022-08-30T09:07:23.716Z,99.90
2022-08-30T09:11:27.002Z,99.90
2022-08-30T09:15:30.207Z,99.90
2022-08-30T09:19:51.775Z,99.90
2022-08-30T09:23:59.203Z,99.90
2022-08-30T09:28:12.367Z,99.90
2022-08-30T09:32:25.513Z,99.90
2022-08-30T09:36:29.322Z,99.90
2022-08-30T09:40:34.120Z,99.90
2022-08-30T09:44:38.234Z,99.20
2022-08-30T09:48:44.590Z,98.20
2022-08-30T09:53:09.838Z,98.10
2022-08-30T09:57:17.711Z,97.00
2022-08-30T10:01:24.885Z,95.40
2022-08-30T10:05:42.573Z,94.30
2022-08-30T10:10:08.532Z,92.30
2022-08-30T10:14:16.288Z,91.40
2022-08-30T10:18:37.005Z,88.10
2022-08-30T10:22:51.052Z,86.50
2022-08-30T10:26:52.996Z,81.60
2022-08-30T10:31:07.907Z,81.90
2022-08-30T10:35:19.612Z,78.20
2022-08-30T10:39:24.711Z,82.10
2022-08-30T10:43:31.757Z,80.70
2022-08-30T10:47:39.444Z,81.80
2022-08-30T10:51:50.376Z,79.40
2022-08-30T10:55:54.954Z,80.70
2022-08-30T10:59:59.652Z,79.20
2022-08-30T11:04:04.346Z,79.40
2022-08-30T11:08:09.865Z,80.20
2022-08-30T11:12:31.183Z,76.10
2022-08-30T11:16:41.890Z,76.80
2022-08-30T11:20:50.735Z,76.30
2022-08-30T11:25:11.564Z,75.30
2022-08-30T11:29:32.896Z,75.70
2022-08-30T11:33:42.599Z,73.10
2022-08-30T11:37:48.874Z,72.00
2022-08-30T11:42:10.171Z,72.20
2022-08-30T11:46:17.527Z,72.20
2022-08-30T11:50:21.538Z,72.90
2022-08-30T11:54:26.330Z,71.30
2022-08-30T11:58:33.866Z,70.30
2022-08-30T12:02:47.039Z,71.30
2022-08-30T12:06:59.098Z,70.40
2022-08-30T12:11:01.539Z,70.40
2022-08-30T12:15:04.184Z,70.40
2022-08-30T12:19:16.231Z,70.40
2022-08-30T12:23:23.426Z,69.50
2022-08-30T12:27:27.758Z,70.60
2022-08-30T12:31:40.719Z,70.30
2022-08-30T12:35:43.495Z,69.60
2022-08-30T12:39:45.455Z,70.40
2022-08-30T12:43:55.915Z,68.70
2022-08-30T12:47:59.392Z,69.20
2022-08-30T12:52:20.153Z,68.30
2022-08-30T12:56:40.538Z,68.20
2022-08-30T13:00:45.320Z,68.80
2022-08-30T13:04:48.145Z,67.70
2022-08-30T13:08:51.910Z,68.60
2022-08-30T13:13:01.939Z,68.70
2022-08-30T13:17:12.055Z,68.20
2022-08-30T13:21:20.942Z,68.40
2022-08-30T13:25:22.881Z,68.30
2022-08-30T13:29:26.086Z,68.10
2022-08-30T13:33:28.067Z,68.20
2022-08-30T13:37:47.250Z,67.10
2022-08-30T13:41:51.607Z,67.90
2022-08-30T13:45:53.462Z,68.50
2022-08-30T13:49:55.780Z,67.00
2022-08-30T13:53:58.321Z,67.30
2022-08-30T13:58:00.483Z,68.40
2022-08-30T14:02:11.415Z,68.60
2022-08-30T14:06:32.243Z,67.40
2022-08-30T14:10:46.437Z,68.80
2022-08-30T14:14:48.705Z,67.70
2022-08-30T14:18:50.341Z,67.20
2022-08-30T14:22:52.334Z,66.80
2022-08-30T14:26:54.028Z,67.60
2022-08-30T14:30:55.917Z,68.80
2022-08-30T14:34:59.168Z,68.40
2022-08-30T14:39:01.039Z,67.30
2022-08-30T14:43:02.854Z,66.80
2022-08-30T14:47:04.826Z,66.50
2022-08-30T14:51:16.883Z,66.60
2022-08-30T14:55:19.057Z,66.40
2022-08-30T14:59:21.394Z,67.80
2022-08-30T15:03:24.463Z,67.20
2022-08-30T15:07:28.718Z,66.90
2022-08-30T15:11:36.792Z,66.90
2022-08-30T15:15:41.758Z,68.00
2022-08-30T15:19:43.473Z,68.00
2022-08-30T15:23:45.284Z,68.30
2022-08-30T15:27:46.983Z,67.50
2022-08-30T15:31:51.804Z,67.80
2022-08-30T15:35:58.431Z,67.60
2022-08-30T15:40:10.563Z,67.00
2022-08-30T15:44:16.190Z,67.20
2022-08-30T15:48:18.891Z,66.00
2022-08-30T15:52:31.507Z,67.00
2022-08-30T15:56:36.967Z,66.00
2022-08-30T16:00:45.164Z,65.60
2022-08-30T16:04:47.590Z,65.50
2022-08-30T16:08:51.559Z,65.30
2022-08-30T16:12:54.973Z,65.80
2022-08-30T16:17:00.720Z,65.30
2022-08-30T16:21:10.716Z,65.70
2022-08-30T16:25:12.547Z,64.80
2022-08-30T16:29:15.097Z,66.00
2022-08-30T16:33:19.198Z,65.60
2022-08-30T16:37:21.131Z,65.50
2022-08-30T16:41:23.355Z,65.00
2022-08-30T16:45:28.587Z,65.60
2022-08-30T16:49:33.302Z,67.30
2022-08-30T16:53:35.428Z,71.90
2022-08-30T16:57:38.747Z,73.60
2022-08-30T17:01:43.490Z,75.60
2022-08-30T17:05:47.024Z,77.70
2022-08-30T17:09:51.650Z,78.90
2022-08-30T17:13:57.429Z,80.30
2022-08-30T17:17:59.123Z,81.30
2022-08-30T17:22:01.075Z,82.30
2022-08-30T17:26:05.920Z,83.50
2022-08-30T17:30:08.203Z,84.60
2022-08-30T17:34:11.767Z,85.00
2022-08-30T17:38:13.558Z,85.60
2022-08-30T17:42:15.464Z,87.00
2022-08-30T17:46:18.592Z,88.00
2022-08-30T17:50:24.009Z,88.60
2022-08-30T17:54:31.174Z,90.00
2022-08-30T17:58:34.687Z,90.40
2022-08-30T18:02:37.311Z,90.90
2022-08-30T18:06:39.991Z,91.10
2022-08-30T18:10:42.050Z,91.80
2022-08-30T18:14:44.867Z,92.20
2022-08-30T18:18:46.736Z,92.50
2022-08-30T18:22:49.131Z,93.10
2022-08-30T18:26:51.112Z,93.20
2022-08-30T18:30:55.979Z,93.80
2022-08-30T18:34:57.768Z,94.10
2022-08-30T18:38:59.789Z,94.20
2022-08-30T18:43:08.047Z,94.40
2022-08-30T18:47:10.015Z,94.80
2022-08-30T18:51:16.737Z,95.20
2022-08-30T18:55:18.856Z,95.60
2022-08-30T18:59:20.980Z,96.10
2022-08-30T19:03:24.284Z,96.30
2022-08-30T19:07:28.972Z,96.60
2022-08-30T19:11:33.707Z,96.80
2022-08-30T19:15:36.108Z,97.30
2022-08-30T19:19:47.462Z,97.50
2022-08-30T19:23:54.943Z,98.00
2022-08-30T19:27:57.118Z,98.60
2022-08-30T19:31:59.173Z,98.80
2022-08-30T19:36:01.232Z,98.90
2022-08-30T19:40:08.540Z,99.30
2022-08-30T19:44:10.357Z,99.80
2022-08-30T19:48:13.318Z,99.90
2022-08-30T19:52:15.223Z,99.90
2022-08-30T19:56:17.007Z,99.90
2022-08-30T20:00:19.247Z,99.90
2022-08-30T20:04:23.314Z,99.90
2022-08-30T20:08:26.291Z,99.90
2022-08-30T20:12:27.906Z,99.90
2022-08-30T20:16:37.175Z,99.90
2022-08-30T20:20:39.470Z,99.90
2022-08-30T20:24:43.770Z,99.90
2022-08-30T20:28:45.891Z,99.90
2022-08-30T20:32:47.526Z,99.90
2022-08-30T20:36:49.254Z,99.90
2022-08-30T20:40:52.566Z,99.90
2022-08-30T20:44:54.347Z,99.90
2022-08-30T20:48:55.888Z,99.90
2022-08-30T20:52:57.654Z,99.90
2022-08-30T20:56:59.328Z,99.90
2022-08-30T21:01:01.025Z,99.90
2022-08-30T21:05:05.260Z,99.90
2022-08-30T21:09:07.699Z,99.90
2022-08-30T21:13:09.641Z,99.90
2022-08-30T21:17:11.325Z,99.90
2022-08-30T21:21:14.916Z,99.90
2022-08-30T21:25:16.610Z,99.90
2022-08-30T21:29:18.265Z,99.90
2022-08-30T21:33:19.948Z,99.90
2022-08-30T21:37:21.789Z,99.90
2022-08-30T21:41:23.772Z,99.90
2022-08-30T21:45:28.610Z,99.90
2022-08-30T21:49:30.544Z,99.90
2022-08-30T21:53:32.309Z,99.90
2022-08-30T21:57:33.951Z,99.90
2022-08-30T22:01:36.312Z,99.90
2022-08-30T22:05:39.308Z,99.90
2022-08-30T22:09:43.848Z,99.90
2022-08-30T22:13:46.877Z,99.90
2022-08-30T22:17:49.724Z,99.90
2022-08-30T22:21:51.627Z,99.90
2022-08-30T22:25:53.242Z,99.90
2022-08-30T22:29:54.826Z,99.90
2022-08-30T22:33:56.464Z,99.90
2022-08-30T22:37:58.318Z,99.90
2022-08-30T22:42:00.106Z,99.90
2022-08-30T22:46:01.979Z,99.90
2022-08-30T22:50:03.817Z,99.90
2022-08-30T22:54:06.341Z,99.90
2022-08-30T22:58:08.003Z,99.90
2022-08-30T23:02:09.628Z,99.90
2022-08-30T23:06:11.826Z,99.90
2022-08-30T23:10:13.829Z,99.90
2022-08-30T23:14:15.512Z,99.90
2022-08-30T23:18:18.080Z,99.90
2022-08-30T23:22:19.705Z,99.90
2022-08-30T23:26:40.166Z,99.90
2022-08-30T23:31:00.386Z,99.90
2022-08-30T23:35:20.959Z,99.90
2022-08-30T23:39:50.373Z,99.90
2022-08-30T23:44:10.473Z,99.90
2022-08-30T23:48:30.743Z,99.90
2022-08-30T23:52:50.899Z,99.90
2022-08-30T23:57:11.022Z,99.90
